Costa Adriatica — IFQQ — position and weather

sailwx.info

Track history (hours):
 
Tides and Currents Weather Stations Pressure Air Temp Water Temp Dewpoint Dewpoint Depression Visibility Wind Speed Wind Dir Waves Ship Positions

Costa Adriatica

Last reported at 2018-Aug-14 15:00 UTC. Time now 2018-Aug-14 15:19 UTC.
Position N 45°30' E 012°39'.

Length 28 m.

Type: Passenger vessel. MMSI: 247194400.

Date/timePositionNaut miles runAvg speedWind from/ knotsBaromVisibWave heightAir tempDewpointWater temp
2018-Aug-14 15:00N 45°30' E 012°39'1019.3
2018-Aug-14 14:30N 45°25' E 012°26'4 7.3
2018-Aug-14 14:00N 45°26' E 012°21'0 0.0
2018-Aug-14 13:30N 45°26' E 012°21'0 0.0
2018-Aug-14 13:00N 45°26' E 012°21'0 0.0
2018-Aug-14 12:30N 45°26' E 012°21'0 0.0
2018-Aug-14 12:00N 45°26' E 012°21'0 0.0
2018-Aug-14 11:30N 45°26' E 012°21'0 0.0
2018-Aug-14 11:00N 45°26' E 012°21'0 0.0
2018-Aug-14 10:30N 45°26' E 012°21'0 0.0
2018-Aug-14 10:00N 45°26' E 012°21'0 0.0
2018-Aug-14 09:30N 45°26' E 012°21'0 0.0
2018-Aug-14 09:00N 45°26' E 012°21'0 0.0
2018-Aug-14 08:30N 45°26' E 012°21'2 4.0
2018-Aug-14 08:00N 45°26' E 012°24'815.7
2018-Aug-14 07:30N 45°28' E 012°35'918.8
2018-Aug-14 07:00N 45°33' E 012°47'918.9
2018-Aug-14 06:30N 45°37' E 012°58'1 0.0
2018-Aug-13 15:58N 45°38' E 012°59'714.6
2018-Aug-13 15:30N 45°34' E 012°50'918.8
2018-Aug-13 15:00N 45°30' E 012°39'918.8
2018-Aug-13 14:31N 45°26' E 012°27'4 8.2
2018-Aug-13 14:00N 45°26' E 012°21'0 0.1
2018-Aug-13 13:29N 45°26' E 012°21'0 0.0
2018-Aug-13 13:00N 45°26' E 012°21'0 0.0
2018-Aug-13 12:30N 45°26' E 012°21'0 0.0
2018-Aug-13 12:00N 45°26' E 012°21'0 0.0
2018-Aug-13 11:30N 45°26' E 012°21'0 0.0
2018-Aug-13 11:00N 45°26' E 012°21'0 0.0
2018-Aug-13 10:30N 45°26' E 012°21'0 0.0
2018-Aug-13 10:00N 45°26' E 012°21'0 0.0
2018-Aug-13 09:30N 45°26' E 012°21'0 0.0
2018-Aug-13 09:00N 45°26' E 012°21'0 0.0
2018-Aug-13 08:30N 45°26' E 012°21'3 5.3
2018-Aug-13 08:00N 45°26' E 012°25'917.1
2018-Aug-13 07:31N 45°29' E 012°36'918.3
2018-Aug-13 07:00N 45°33' E 012°48'917.3
2018-Aug-13 06:30N 45°37' E 012°59'  
2018-Aug-09 15:57N 45°38' E 012°59'715.1
2018-Aug-09 15:30N 45°34' E 012°51'1019.2
2018-Aug-09 15:00N 45°30' E 012°39'1019.3
2018-Aug-09 14:30N 45°25' E 012°27'4 8.0
2018-Aug-09 14:00N 45°26' E 012°21'0 0.0
2018-Aug-09 13:29N 45°26' E 012°21'0 0.0
2018-Aug-09 13:01N 45°26' E 012°21'0 0.0
2018-Aug-09 12:30N 45°26' E 012°21'0 0.0
2018-Aug-09 11:59N 45°26' E 012°21'0 0.0
2018-Aug-09 11:30N 45°26' E 012°21'0 0.0
2018-Aug-09 11:00N 45°26' E 012°21'0 0.0
2018-Aug-09 10:30N 45°26' E 012°21'0 0.0
2018-Aug-09 10:00N 45°26' E 012°21'0 0.0
2018-Aug-09 09:30N 45°26' E 012°21'0 0.0
2018-Aug-09 09:00N 45°26' E 012°21'0 0.0
2018-Aug-09 08:31N 45°26' E 012°21'3 5.0
2018-Aug-09 08:00N 45°26' E 012°25'917.0
2018-Aug-09 07:30N 45°29' E 012°36'919.1
2018-Aug-09 07:00N 45°33' E 012°48'916.9
2018-Aug-09 06:30N 45°37' E 012°59'0 0.0
2018-Aug-08 15:58N 45°38' E 012°59'716.3
2018-Aug-08 15:30N 45°34' E 012°49'918.9
2018-Aug-08 15:00N 45°29' E 012°38'918.3
2018-Aug-08 14:31N 45°25' E 012°26'4 7.0
2018-Aug-08 14:00N 45°26' E 012°21'0 0.0
2018-Aug-08 13:30N 45°26' E 012°21'0 0.0
2018-Aug-08 13:00N 45°26' E 012°21'0 0.0
2018-Aug-08 12:30N 45°26' E 012°21'0 0.0
2018-Aug-08 12:00N 45°26' E 012°21'0 0.0
2018-Aug-08 11:31N 45°26' E 012°21'0 0.0
2018-Aug-08 11:00N 45°26' E 012°21'0 0.0
2018-Aug-08 10:30N 45°26' E 012°21'0 0.0
2018-Aug-08 10:01N 45°26' E 012°21'0 0.0
2018-Aug-08 09:31N 45°26' E 012°21'0 0.0
2018-Aug-08 09:00N 45°26' E 012°21'0 0.0
2018-Aug-08 08:30N 45°26' E 012°21'2 4.7
2018-Aug-08 08:00N 45°26' E 012°24'815.8
2018-Aug-08 07:30N 45°28' E 012°35'918.8
2018-Aug-08 07:00N 45°33' E 012°47'918.8
2018-Aug-08 06:31N 45°37' E 012°59'1 0.0
2018-Aug-07 15:56N 45°38' E 012°59'716.4
2018-Aug-07 15:30N 45°34' E 012°50'919.2
2018-Aug-07 15:01N 45°29' E 012°38'918.4
2018-Aug-07 14:30N 45°25' E 012°27'4 7.5
2018-Aug-07 14:00N 45°26' E 012°21'0 0.7
2018-Aug-07 13:30N 45°26' E 012°21'0 0.0
2018-Aug-07 13:00N 45°26' E 012°21'0 0.0
2018-Aug-07 12:30N 45°26' E 012°21'0 0.0
2018-Aug-07 12:00N 45°26' E 012°21'0 0.0
2018-Aug-07 11:30N 45°26' E 012°21'0 0.0
2018-Aug-07 10:57N 45°26' E 012°21'0 0.0
2018-Aug-07 10:30N 45°26' E 012°21'0 0.0
2018-Aug-07 09:59N 45°26' E 012°21'0 0.0
2018-Aug-07 09:30N 45°26' E 012°21'0 0.0
2018-Aug-07 09:00N 45°26' E 012°21'0 0.0
2018-Aug-07 08:30N 45°26' E 012°21'2 4.8
2018-Aug-07 08:00N 45°26' E 012°24'816.1
2018-Aug-07 07:30N 45°28' E 012°35'918.9
2018-Aug-07 07:01N 45°33' E 012°47'918.4
2018-Aug-07 06:30N 45°37' E 012°59'0 0.0
2018-Aug-06 16:02N 45°38' E 012°59'0 6.5
2018-Aug-06 16:00N 45°37' E 012°59'816.6
2018-Aug-06 15:31N 45°33' E 012°48'918.6
2018-Aug-06 15:00N 45°29' E 012°37'816.9
2018-Aug-06 14:31N 45°25' E 012°26'3 6.2
2018-Aug-06 14:00N 45°26' E 012°21'0 0.0
2018-Aug-06 13:31N 45°26' E 012°21'0 0.0
2018-Aug-06 13:01N 45°26' E 012°21'0 0.0
2018-Aug-06 12:30N 45°26' E 012°21'0 0.0
2018-Aug-06 12:01N 45°26' E 012°21'0 0.0
2018-Aug-06 11:30N 45°26' E 012°21'0 0.0
2018-Aug-06 11:00N 45°26' E 012°21'0 0.0
2018-Aug-06 10:30N 45°26' E 012°21'0 0.0
2018-Aug-06 10:00N 45°26' E 012°21'0 0.0
2018-Aug-06 09:30N 45°26' E 012°21'0 0.0
2018-Aug-06 09:00N 45°26' E 012°21'0 0.0
2018-Aug-06 08:31N 45°26' E 012°21'2 5.0
2018-Aug-06 08:01N 45°26' E 012°25'816.0
2018-Aug-06 07:30N 45°28' E 012°35'918.8
2018-Aug-06 07:00N 45°33' E 012°47'917.8
2018-Aug-06 06:30N 45°37' E 012°59'  
Track history (hours):
 
Tides and Currents Weather Stations Pressure Air Temp Water Temp Dewpoint Dewpoint Depression Visibility Wind Speed Wind Dir Waves Ship Positions

Costa Adriatica

Last reported at 2018-Aug-14 15:00 UTC. Time now 2018-Aug-14 15:19 UTC.
Position N 45°30' E 012°39'.

Length 28 m.

Type: Passenger vessel. MMSI: 247194400.

Date/timePositionNaut miles runAvg speedWind from/ knotsBaromVisibWave heightAir tempDewpointWater temp
2018-Aug-14 15:00N 45°30' E 012°39'1019.3
2018-Aug-14 14:30N 45°25' E 012°26'4 7.3
2018-Aug-14 14:00N 45°26' E 012°21'0 0.0
2018-Aug-14 13:30N 45°26' E 012°21'0 0.0
2018-Aug-14 13:00N 45°26' E 012°21'0 0.0
2018-Aug-14 12:30N 45°26' E 012°21'0 0.0
2018-Aug-14 12:00N 45°26' E 012°21'0 0.0
2018-Aug-14 11:30N 45°26' E 012°21'0 0.0
2018-Aug-14 11:00N 45°26' E 012°21'0 0.0
2018-Aug-14 10:30N 45°26' E 012°21'0 0.0
2018-Aug-14 10:00N 45°26' E 012°21'0 0.0
2018-Aug-14 09:30N 45°26' E 012°21'0 0.0
2018-Aug-14 09:00N 45°26' E 012°21'0 0.0
2018-Aug-14 08:30N 45°26' E 012°21'2 4.0
2018-Aug-14 08:00N 45°26' E 012°24'815.7
2018-Aug-14 07:30N 45°28' E 012°35'918.8
2018-Aug-14 07:00N 45°33' E 012°47'918.9
2018-Aug-14 06:30N 45°37' E 012°58'1 0.0
2018-Aug-13 15:58N 45°38' E 012°59'714.6
2018-Aug-13 15:30N 45°34' E 012°50'918.8
2018-Aug-13 15:00N 45°30' E 012°39'918.8
2018-Aug-13 14:31N 45°26' E 012°27'4 8.2
2018-Aug-13 14:00N 45°26' E 012°21'0 0.1
2018-Aug-13 13:29N 45°26' E 012°21'0 0.0
2018-Aug-13 13:00N 45°26' E 012°21'0 0.0
2018-Aug-13 12:30N 45°26' E 012°21'0 0.0
2018-Aug-13 12:00N 45°26' E 012°21'0 0.0
2018-Aug-13 11:30N 45°26' E 012°21'0 0.0
2018-Aug-13 11:00N 45°26' E 012°21'0 0.0
2018-Aug-13 10:30N 45°26' E 012°21'0 0.0
2018-Aug-13 10:00N 45°26' E 012°21'0 0.0
2018-Aug-13 09:30N 45°26' E 012°21'0 0.0
2018-Aug-13 09:00N 45°26' E 012°21'0 0.0
2018-Aug-13 08:30N 45°26' E 012°21'3 5.3
2018-Aug-13 08:00N 45°26' E 012°25'917.1
2018-Aug-13 07:31N 45°29' E 012°36'918.3
2018-Aug-13 07:00N 45°33' E 012°48'917.3
2018-Aug-13 06:30N 45°37' E 012°59'  
2018-Aug-09 15:57N 45°38' E 012°59'715.1
2018-Aug-09 15:30N 45°34' E 012°51'1019.2
2018-Aug-09 15:00N 45°30' E 012°39'1019.3
2018-Aug-09 14:30N 45°25' E 012°27'4 8.0
2018-Aug-09 14:00N 45°26' E 012°21'0 0.0
2018-Aug-09 13:29N 45°26' E 012°21'0 0.0
2018-Aug-09 13:01N 45°26' E 012°21'0 0.0
2018-Aug-09 12:30N 45°26' E 012°21'0 0.0
2018-Aug-09 11:59N 45°26' E 012°21'0 0.0
2018-Aug-09 11:30N 45°26' E 012°21'0 0.0
2018-Aug-09 11:00N 45°26' E 012°21'0 0.0
2018-Aug-09 10:30N 45°26' E 012°21'0 0.0
2018-Aug-09 10:00N 45°26' E 012°21'0 0.0
2018-Aug-09 09:30N 45°26' E 012°21'0 0.0
2018-Aug-09 09:00N 45°26' E 012°21'0 0.0
2018-Aug-09 08:31N 45°26' E 012°21'3 5.0
2018-Aug-09 08:00N 45°26' E 012°25'917.0
2018-Aug-09 07:30N 45°29' E 012°36'919.1
2018-Aug-09 07:00N 45°33' E 012°48'916.9
2018-Aug-09 06:30N 45°37' E 012°59'0 0.0
2018-Aug-08 15:58N 45°38' E 012°59'716.3
2018-Aug-08 15:30N 45°34' E 012°49'918.9
2018-Aug-08 15:00N 45°29' E 012°38'918.3
2018-Aug-08 14:31N 45°25' E 012°26'4 7.0
2018-Aug-08 14:00N 45°26' E 012°21'0 0.0
2018-Aug-08 13:30N 45°26' E 012°21'0 0.0
2018-Aug-08 13:00N 45°26' E 012°21'0 0.0
2018-Aug-08 12:30N 45°26' E 012°21'0 0.0
2018-Aug-08 12:00N 45°26' E 012°21'0 0.0
2018-Aug-08 11:31N 45°26' E 012°21'0 0.0
2018-Aug-08 11:00N 45°26' E 012°21'0 0.0
2018-Aug-08 10:30N 45°26' E 012°21'0 0.0
2018-Aug-08 10:01N 45°26' E 012°21'0 0.0
2018-Aug-08 09:31N 45°26' E 012°21'0 0.0
2018-Aug-08 09:00N 45°26' E 012°21'0 0.0
2018-Aug-08 08:30N 45°26' E 012°21'2 4.7
2018-Aug-08 08:00N 45°26' E 012°24'815.8
2018-Aug-08 07:30N 45°28' E 012°35'918.8
2018-Aug-08 07:00N 45°33' E 012°47'918.8
2018-Aug-08 06:31N 45°37' E 012°59'1 0.0
2018-Aug-07 15:56N 45°38' E 012°59'716.4
2018-Aug-07 15:30N 45°34' E 012°50'919.2
2018-Aug-07 15:01N 45°29' E 012°38'918.4
2018-Aug-07 14:30N 45°25' E 012°27'4 7.5
2018-Aug-07 14:00N 45°26' E 012°21'0 0.7
2018-Aug-07 13:30N 45°26' E 012°21'0 0.0
2018-Aug-07 13:00N 45°26' E 012°21'0 0.0
2018-Aug-07 12:30N 45°26' E 012°21'0 0.0
2018-Aug-07 12:00N 45°26' E 012°21'0 0.0
2018-Aug-07 11:30N 45°26' E 012°21'0 0.0
2018-Aug-07 10:57N 45°26' E 012°21'0 0.0
2018-Aug-07 10:30N 45°26' E 012°21'0 0.0
2018-Aug-07 09:59N 45°26' E 012°21'0 0.0
2018-Aug-07 09:30N 45°26' E 012°21'0 0.0
2018-Aug-07 09:00N 45°26' E 012°21'0 0.0
2018-Aug-07 08:30N 45°26' E 012°21'2 4.8
2018-Aug-07 08:00N 45°26' E 012°24'816.1
2018-Aug-07 07:30N 45°28' E 012°35'918.9
2018-Aug-07 07:01N 45°33' E 012°47'918.4
2018-Aug-07 06:30N 45°37' E 012°59'0 0.0
2018-Aug-06 16:02N 45°38' E 012°59'0 6.5
2018-Aug-06 16:00N 45°37' E 012°59'816.6
2018-Aug-06 15:31N 45°33' E 012°48'918.6
2018-Aug-06 15:00N 45°29' E 012°37'816.9
2018-Aug-06 14:31N 45°25' E 012°26'3 6.2
2018-Aug-06 14:00N 45°26' E 012°21'0 0.0
2018-Aug-06 13:31N 45°26' E 012°21'0 0.0
2018-Aug-06 13:01N 45°26' E 012°21'0 0.0
2018-Aug-06 12:30N 45°26' E 012°21'0 0.0
2018-Aug-06 12:01N 45°26' E 012°21'0 0.0
2018-Aug-06 11:30N 45°26' E 012°21'0 0.0
2018-Aug-06 11:00N 45°26' E 012°21'0 0.0
2018-Aug-06 10:30N 45°26' E 012°21'0 0.0
2018-Aug-06 10:00N 45°26' E 012°21'0 0.0
2018-Aug-06 09:30N 45°26' E 012°21'0 0.0
2018-Aug-06 09:00N 45°26' E 012°21'0 0.0
2018-Aug-06 08:31N 45°26' E 012°21'2 5.0
2018-Aug-06 08:01N 45°26' E 012°25'816.0
2018-Aug-06 07:30N 45°28' E 012°35'918.8
2018-Aug-06 07:00N 45°33' E 012°47'917.8
2018-Aug-06 06:30N 45°37' E 012°59'  

Dump ship's entire track history